KGYY/GYY METAR and TAF weather

Enter ICAO airport designator
Station Type Date Time Source
KGYY METAR 2022/01/29 01:45 UTC NOAA

KGYY 290145Z 27010KT 10SM OVC033 M07/M12 A3034


Station Type Date Time Source
KGYY Decoded METAR 2022/01/29 01:45 UTC NOAA

Gary Regional, IN, United States (KGYY) 41-37N 087-25W
Jan 28, 2022 - 08:45 PM EST / 2022.01.29 0145 UTC
Wind: from the W (270 degrees) at 12 MPH (10 KT):0
Visibility: 10 mile(s):0
Sky conditions: overcast
Temperature: 19 F (-7 C)
Windchill: 6 F (-14 C):1
Dew Point: 10 F (-12 C)
Relative Humidity: 67%
Pressure (altimeter): 30.34 in. Hg (1027 hPa)
ob: KGYY 290145Z 27010KT 10SM OVC033 M07/M12 A3034
cycle: 2

Station Type Date Time Source
KGYY TAF 2022/01/28 21:03 UTC NOAA

TAF
AMD KGYY 282101Z 2821/2918 35007KT 5SM -SHSN SCT015 BKN030
TEMPO 2821/2823 1 1/2SM -SHSN VV010
FM290200 28004KT P6SM BKN035
FM290900 23006KT P6SM SCT035 BKN080

Example: see airport list